createdAt,value
2022-10-30T03:21:55.888Z,98596.79
2022-10-30T03:24:28.165Z,98598.73
2022-10-30T03:26:58.987Z,98592.89
2022-10-30T03:29:29.984Z,98589.69
2022-10-30T03:32:00.580Z,98590.21
2022-10-30T03:34:34.791Z,98591.48
2022-10-30T03:37:10.393Z,98588.14
2022-10-30T03:57:34.070Z,98578.67
2022-10-30T04:52:35.452Z,98578.55
2022-10-30T04:55:10.266Z,98586.67
2022-10-30T04:57:41.567Z,98589.24
2022-10-30T05:00:18.031Z,98585.20
2022-10-30T05:02:48.735Z,98593.49
2022-10-30T05:05:19.358Z,98597.00
2022-10-30T05:07:49.936Z,98598.55
2022-10-30T05:10:20.969Z,98595.67
2022-10-30T05:12:52.267Z,98588.71
2022-10-30T05:15:22.995Z,98590.19
2022-10-30T05:17:55.541Z,98589.55
2022-10-30T05:20:26.229Z,98583.70
2022-10-30T05:23:00.579Z,98583.06
2022-10-30T05:25:31.269Z,98580.54
2022-10-30T05:28:03.926Z,98574.50
2022-10-30T05:30:38.600Z,98571.45
2022-10-30T05:33:15.882Z,98572.34
2022-10-30T05:35:46.745Z,98572.65
2022-10-30T05:38:17.474Z,98577.84
2022-10-30T05:40:48.569Z,98577.85
2022-10-30T05:43:19.545Z,98580.46
2022-10-30T05:45:52.507Z,98577.10
2022-10-30T05:48:23.166Z,98579.11
2022-10-30T05:50:55.997Z,98578.30
2022-10-30T05:53:31.688Z,98573.58
2022-10-30T05:56:02.680Z,98579.25
2022-10-30T05:58:35.745Z,98582.48
2022-10-30T06:01:11.887Z,98582.77
2022-10-30T06:03:46.615Z,98585.81
2022-10-30T06:06:17.339Z,98584.74
2022-10-30T06:08:49.725Z,98586.02
2022-10-30T06:11:39.514Z,98588.92
2022-10-30T06:14:14.715Z,98590.48
2022-10-30T06:20:28.152Z,98591.59
2022-10-30T06:23:34.810Z,98599.09
2022-10-30T06:26:46.747Z,98598.81
2022-10-30T06:29:28.618Z,98600.89
2022-10-30T06:32:21.220Z,98600.30
2022-10-30T06:35:10.691Z,98603.36
2022-10-30T06:37:42.106Z,98606.64
2022-10-30T06:40:43.658Z,98608.71
2022-10-30T06:44:15.507Z,98605.10
2022-10-30T08:36:49.426Z,98632.77
2022-10-30T08:39:20.572Z,98632.91
2022-10-30T08:42:09.261Z,98628.65
2022-10-30T08:44:45.218Z,98629.56
2022-10-30T08:47:59.059Z,98630.27
2022-10-30T08:50:31.281Z,98630.71
2022-10-30T08:53:04.450Z,98633.24
2022-10-30T08:55:35.813Z,98633.05
2022-10-30T08:58:09.534Z,98628.79
2022-10-30T09:00:40.218Z,98625.45
2022-10-30T09:03:16.319Z,98625.90
2022-10-30T09:06:14.992Z,98626.11
2022-10-30T09:09:17.282Z,98630.28
2022-10-30T09:11:52.550Z,98631.38
2022-10-30T09:14:23.052Z,98632.33
2022-10-30T09:16:53.552Z,98628.05
2022-10-30T09:19:24.287Z,98626.40
2022-10-30T09:31:54.513Z,98628.30
2022-10-30T09:37:03.844Z,98630.16
2022-10-30T09:39:38.383Z,98626.65
2022-10-30T09:42:39.602Z,98629.45
2022-10-30T09:45:30.700Z,98629.10
2022-10-30T09:48:43.642Z,98629.28
2022-10-30T09:51:35.478Z,98626.71
2022-10-30T10:00:10.332Z,98618.88
2022-10-30T10:02:57.410Z,98618.77
2022-10-30T10:05:36.098Z,98617.83
2022-10-30T10:08:33.174Z,98620.96
2022-10-30T10:11:25.672Z,98625.17
2022-10-30T10:14:00.082Z,98623.26
2022-10-30T10:16:32.824Z,98620.60
2022-10-30T10:19:10.721Z,98622.36
2022-10-30T10:21:46.582Z,98614.77
2022-10-30T10:24:23.016Z,98615.45
2022-10-30T10:26:58.600Z,98613.74
2022-10-30T10:29:46.045Z,98610.48
2022-10-30T10:32:37.677Z,98610.34
2022-10-30T10:35:25.916Z,98607.72
2022-10-30T10:38:03.105Z,98603.27
2022-10-30T10:40:44.766Z,98605.79
2022-10-30T10:43:19.640Z,98606.18
2022-10-30T10:45:54.020Z,98601.67
2022-10-30T10:48:38.205Z,98601.08
2022-10-30T10:51:10.873Z,98597.67
2022-10-30T10:53:45.526Z,98600.29
2022-10-30T10:56:18.854Z,98600.64
2022-10-30T10:58:53.348Z,98602.53
2022-10-30T11:01:33.870Z,98601.98
2022-10-30T11:04:06.848Z,98596.36
2022-10-30T11:06:39.232Z,98593.04
2022-10-30T11:09:19.718Z,98593.90
2022-10-30T11:11:50.872Z,98589.90
2022-10-30T11:14:23.477Z,98589.06
2022-10-30T11:17:02.064Z,98582.76
2022-10-30T11:19:32.793Z,98580.63
2022-10-30T11:22:03.519Z,98582.44
2022-10-30T11:24:36.401Z,98581.71
2022-10-30T11:27:24.649Z,98577.93
2022-10-30T11:29:58.308Z,98576.70
2022-10-30T11:32:31.474Z,98569.86
2022-10-30T11:35:15.424Z,98568.87
2022-10-30T11:37:46.861Z,98566.77
2022-10-30T11:40:22.059Z,98569.79
2022-10-30T11:43:02.279Z,98568.95
2022-10-30T11:45:35.472Z,98567.35
2022-10-30T11:48:15.777Z,98563.29
2022-10-30T11:50:50.318Z,98563.95
2022-10-30T11:53:30.248Z,98560.49
2022-10-30T11:56:01.317Z,98561.27
2022-10-30T11:58:33.578Z,98559.48
2022-10-30T12:01:06.479Z,98555.02
2022-10-30T12:03:40.172Z,98556.33
2022-10-30T12:06:12.321Z,98557.27
2022-10-30T12:08:42.859Z,98552.79
2022-10-30T12:11:13.328Z,98554.45
2022-10-30T12:13:44.586Z,98553.17
2022-10-30T12:16:20.620Z,98550.67
2022-10-30T12:18:58.761Z,98544.23
2022-10-30T12:21:30.840Z,98542.21
2022-10-30T12:24:06.821Z,98539.46
2022-10-30T12:26:38.350Z,98536.84
2022-10-30T12:29:16.091Z,98537.58
2022-10-30T12:31:49.582Z,98532.62
2022-10-30T12:34:30.638Z,98536.17
2022-10-30T12:37:07.496Z,98531.69
2022-10-30T12:39:48.584Z,98535.17
2022-10-30T12:42:22.976Z,98536.40
2022-10-30T12:45:00.409Z,98534.56
2022-10-30T12:47:35.052Z,98531.75
2022-10-30T12:50:08.006Z,98532.88
2022-10-30T12:52:41.288Z,98526.64
2022-10-30T12:55:16.727Z,98530.52
2022-10-30T12:57:51.326Z,98526.34
2022-10-30T13:00:22.088Z,98525.90
2022-10-30T13:02:57.943Z,98524.16
2022-10-30T13:05:31.840Z,98515.13
2022-10-30T13:08:07.987Z,98519.48
2022-10-30T13:10:42.287Z,98517.95
2022-10-30T13:13:16.918Z,98526.91
2022-10-30T13:15:49.752Z,98527.10
2022-10-30T13:18:21.509Z,98519.96
2022-10-30T13:21:13.309Z,98518.98
2022-10-30T13:23:49.621Z,98520.18
2022-10-30T13:26:26.856Z,98519.08
2022-10-30T13:29:02.737Z,98515.46
2022-10-30T13:31:38.569Z,98518.42
2022-10-30T13:34:17.739Z,98520.45
2022-10-30T13:36:51.080Z,98516.55
2022-10-30T13:39:28.616Z,98513.63
2022-10-30T13:42:11.038Z,98518.08
2022-10-30T13:44:48.215Z,98515.50
2022-10-30T13:47:28.274Z,98514.40
2022-10-30T13:50:29.940Z,98513.23
2022-10-30T13:53:03.189Z,98511.91
2022-10-30T13:55:35.091Z,98518.07
2022-10-30T13:58:08.675Z,98516.00
2022-10-30T14:00:53.705Z,98515.86
2022-10-30T14:03:44.219Z,98513.59
2022-10-30T14:06:22.133Z,98512.02
2022-10-30T14:08:59.539Z,98518.97
2022-10-30T14:11:29.982Z,98517.33
2022-10-30T14:14:06.887Z,98518.71
2022-10-30T14:16:41.699Z,98521.71
2022-10-30T14:19:13.122Z,98525.10
2022-10-30T14:21:45.772Z,98529.01
2022-10-30T14:24:18.244Z,98532.70
2022-10-30T14:26:53.032Z,98534.48
2022-10-30T14:29:47.059Z,98535.38
2022-10-30T14:32:44.401Z,98539.81
2022-10-30T14:35:35.084Z,98539.59
2022-10-30T14:38:37.513Z,98541.91
2022-10-30T14:41:40.957Z,98545.54
2022-10-30T14:44:56.153Z,98546.11
2022-10-30T14:47:41.878Z,98542.33
2022-10-30T14:50:20.054Z,98540.44
2022-10-30T14:53:02.055Z,98541.02
2022-10-30T14:55:39.495Z,98537.94
2022-10-30T14:58:22.400Z,98536.52
2022-10-30T15:01:15.004Z,98535.56
2022-10-30T15:04:02.120Z,98535.10
2022-10-30T15:06:37.283Z,98530.99
2022-10-30T15:09:14.874Z,98537.10
2022-10-30T15:12:00.966Z,98539.49
2022-10-30T15:14:53.425Z,98540.59
2022-10-30T15:17:29.276Z,98538.73
2022-10-30T15:20:05.757Z,98540.88
2022-10-30T15:22:36.928Z,98539.48
2022-10-30T15:25:13.533Z,98542.65
2022-10-30T15:27:45.792Z,98541.89
2022-10-30T15:30:20.062Z,98540.14
2022-10-30T15:32:51.739Z,98541.03
2022-10-30T15:35:23.565Z,98536.23
2022-10-30T15:38:04.805Z,98533.41
2022-10-30T15:40:36.015Z,98539.93
2022-10-30T15:43:14.469Z,98540.30
2022-10-30T15:45:46.766Z,98542.09
2022-10-30T15:48:25.197Z,98546.11
2022-10-30T15:51:24.022Z,98551.92
2022-10-30T15:53:57.077Z,98559.84
2022-10-30T15:56:30.700Z,98562.98
2022-10-30T15:59:02.930Z,98561.83
2022-10-30T16:01:38.708Z,98561.00
2022-10-30T16:04:17.548Z,98565.10
2022-10-30T16:06:53.275Z,98559.20
2022-10-30T16:09:25.148Z,98565.03
2022-10-30T16:11:57.576Z,98567.33
2022-10-30T16:14:29.773Z,98558.31
2022-10-30T16:17:03.241Z,98559.39
2022-10-30T16:19:41.110Z,98556.09
2022-10-30T16:22:16.678Z,98562.95
2022-10-30T16:24:47.893Z,98565.45
2022-10-30T16:27:19.850Z,98562.92
2022-10-30T16:29:52.199Z,98563.77
2022-10-30T16:32:25.318Z,98562.17
2022-10-30T16:34:59.832Z,98559.29
2022-10-30T16:37:35.253Z,98556.11
2022-10-30T16:40:13.388Z,98558.25
2022-10-30T16:42:46.061Z,98565.09
2022-10-30T16:45:50.015Z,98567.59
2022-10-30T16:48:27.294Z,98573.41
2022-10-30T16:51:07.186Z,98575.21
2022-10-30T16:53:37.639Z,98574.41
2022-10-30T16:56:19.099Z,98576.91
2022-10-30T16:58:49.591Z,98581.51
2022-10-30T17:01:20.831Z,98581.52
2022-10-30T17:04:17.661Z,98585.98
2022-10-30T17:06:50.360Z,98586.06
2022-10-30T17:09:22.596Z,98591.83
2022-10-30T17:12:08.851Z,98594.17
2022-10-30T17:14:47.524Z,98599.48
2022-10-30T17:17:28.257Z,98601.70
2022-10-30T17:20:06.120Z,98603.52
2022-10-30T17:22:36.728Z,98603.95
2022-10-30T17:25:17.699Z,98606.84
2022-10-30T17:27:50.794Z,98608.34
2022-10-30T17:30:36.004Z,98613.30
2022-10-30T17:33:25.488Z,98618.24
2022-10-30T17:35:56.344Z,98618.80
2022-10-30T17:38:30.307Z,98621.64
2022-10-30T17:41:00.858Z,98626.43
2022-10-30T17:43:32.953Z,98626.00
2022-10-30T17:46:03.496Z,98627.15
2022-10-30T17:48:34.100Z,98627.55
2022-10-30T17:51:04.625Z,98631.41
2022-10-30T17:53:35.233Z,98629.55
2022-10-30T17:56:08.286Z,98632.24
2022-10-30T17:58:38.677Z,98634.98
2022-10-30T18:01:10.108Z,98640.13
2022-10-30T18:03:40.610Z,98648.73
2022-10-30T18:06:18.141Z,98650.16
2022-10-30T18:08:50.840Z,98649.64
2022-10-30T18:11:23.485Z,98650.58
2022-10-30T18:13:54.351Z,98648.25
2022-10-30T18:16:25.291Z,98652.74
2022-10-30T18:18:55.802Z,98657.05
2022-10-30T18:21:28.308Z,98657.79
2022-10-30T18:30:08.669Z,98667.70
2022-10-30T18:32:39.280Z,98667.39
2022-10-30T18:35:16.444Z,98665.77
2022-10-30T18:37:48.973Z,98667.75
2022-10-30T18:40:23.258Z,98668.30
2022-10-30T18:42:53.769Z,98669.40
2022-10-30T18:45:26.268Z,98671.19
2022-10-30T18:48:01.852Z,98669.36
2022-10-30T18:50:33.017Z,98669.09
2022-10-30T18:53:04.208Z,98671.20
2022-10-30T18:55:40.213Z,98673.99
2022-10-30T18:58:10.991Z,98677.74
2022-10-30T19:01:10.555Z,98678.33
2022-10-30T19:03:35.844Z,98680.83
2022-10-30T19:06:07.196Z,98678.27
2022-10-30T19:08:37.676Z,98681.25
2022-10-30T19:11:18.770Z,98680.02
2022-10-30T19:13:55.604Z,98679.02
2022-10-30T19:16:29.091Z,98677.85
2022-10-30T19:18:59.599Z,98678.11
2022-10-30T19:21:33.423Z,98682.19
2022-10-30T19:24:07.163Z,98682.40
2022-10-30T19:26:45.816Z,98679.22
2022-10-30T19:29:16.296Z,98677.98
2022-10-30T19:31:46.987Z,98678.27
2022-10-30T19:34:17.401Z,98678.17
2022-10-30T19:36:50.429Z,98675.05
2022-10-30T19:39:20.961Z,98673.06
2022-10-30T19:41:51.412Z,98672.19
2022-10-30T19:44:22.033Z,98672.91
2022-10-30T19:46:55.045Z,98675.06
2022-10-30T19:49:25.786Z,98675.38
2022-10-30T19:51:58.700Z,98677.23
2022-10-30T19:54:32.046Z,98675.17
2022-10-30T19:57:02.542Z,98674.78
2022-10-30T19:59:33.196Z,98677.39
2022-10-30T20:02:04.039Z,98675.83
2022-10-30T20:04:37.844Z,98678.67
2022-10-30T20:07:09.715Z,98678.31
2022-10-30T20:09:40.178Z,98682.13
2022-10-30T20:12:11.613Z,98681.54
2022-10-30T20:14:42.150Z,98681.89
2022-10-30T20:17:13.490Z,98683.90
2022-10-30T20:19:44.078Z,98685.52
2022-10-30T20:22:14.654Z,98687.13
2022-10-30T20:24:53.510Z,98691.48
2022-10-30T20:27:24.303Z,98692.21
2022-10-30T20:30:01.871Z,98694.91
2022-10-30T20:32:30.818Z,98693.92
2022-10-30T20:35:01.311Z,98697.31
2022-10-30T20:37:35.919Z,98698.40
2022-10-30T20:40:11.075Z,98694.86
2022-10-30T20:42:44.250Z,98702.29
2022-10-30T20:45:26.108Z,98701.48
2022-10-30T20:48:01.111Z,98705.46
2022-10-30T20:50:31.928Z,98705.64
2022-10-30T20:53:02.621Z,98708.04
2022-10-30T20:55:33.179Z,98708.09
2022-10-30T20:58:06.281Z,98711.79
2022-10-30T21:00:37.521Z,98716.98
2022-10-30T21:03:16.277Z,98718.24
2022-10-30T21:05:47.439Z,98722.48
2022-10-30T21:08:20.289Z,98726.84
2022-10-30T21:10:49.285Z,98724.57
2022-10-30T21:13:19.704Z,98724.10
2022-10-30T21:15:51.402Z,98724.65
2022-10-30T21:18:26.118Z,98727.13
2022-10-30T21:20:57.787Z,98731.85
2022-10-30T21:23:29.848Z,98732.86
2022-10-30T21:26:04.275Z,98734.17
2022-10-30T21:28:35.015Z,98736.36
2022-10-30T21:31:08.466Z,98732.85
2022-10-30T21:33:42.311Z,98732.09
2022-10-30T21:36:15.401Z,98729.29
2022-10-30T21:38:49.472Z,98730.98
2022-10-30T21:41:24.862Z,98725.67
2022-10-30T21:43:56.876Z,98729.39
2022-10-30T21:46:29.166Z,98732.23
2022-10-30T21:49:06.642Z,98729.86
2022-10-30T21:51:39.970Z,98721.81
2022-10-30T21:54:10.524Z,98723.64
2022-10-30T21:56:41.640Z,98727.71
2022-10-30T21:59:13.146Z,98725.10
2022-10-30T22:01:44.134Z,98725.60
2022-10-30T22:04:14.932Z,98727.85
2022-10-30T22:06:48.644Z,98727.55
2022-10-30T22:09:20.045Z,98727.11
2022-10-30T22:11:50.552Z,98724.25
2022-10-30T22:14:21.047Z,98722.27
2022-10-30T22:16:51.586Z,98723.59
2022-10-30T22:19:22.266Z,98722.42
2022-10-30T22:21:52.732Z,98720.35
2022-10-30T22:24:23.314Z,98720.71
2022-10-30T22:26:53.719Z,98720.17
2022-10-30T22:29:24.089Z,98722.28
2022-10-30T22:31:54.694Z,98722.49
2022-10-30T22:34:25.279Z,98719.72
2022-10-30T22:36:55.731Z,98715.76
2022-10-30T22:39:26.606Z,98716.22
2022-10-30T22:41:57.367Z,98721.15
2022-10-30T22:44:28.648Z,98719.98
2022-10-30T22:46:59.100Z,98719.83
2022-10-30T22:49:29.624Z,98722.10
2022-10-30T22:52:00.096Z,98721.57
2022-10-30T22:54:30.596Z,98722.27
2022-10-30T22:57:01.356Z,98721.77
2022-10-30T22:59:31.830Z,98720.75
2022-10-30T23:02:02.329Z,98724.92
2022-10-30T23:04:32.871Z,98727.40
2022-10-30T23:07:03.420Z,98728.81
2022-10-30T23:09:34.130Z,98732.64
2022-10-30T23:12:04.877Z,98729.69
2022-10-30T23:14:35.442Z,98727.46
2022-10-30T23:17:06.000Z,98724.34
2022-10-30T23:19:36.467Z,98725.27
2022-10-30T23:22:07.070Z,98728.42
2022-10-30T23:24:37.635Z,98730.55
2022-10-30T23:27:08.152Z,98734.92
2022-10-30T23:29:38.551Z,98731.29
2022-10-30T23:32:10.116Z,98731.27
2022-10-30T23:34:40.541Z,98733.65
2022-10-30T23:37:10.981Z,98735.02
2022-10-30T23:39:41.465Z,98733.27
2022-10-30T23:42:11.922Z,98732.02
2022-10-30T23:44:42.302Z,98733.91
2022-10-30T23:47:12.902Z,98733.73
2022-10-30T23:49:43.364Z,98732.46
2022-10-30T23:52:14.070Z,98733.77
2022-10-30T23:54:44.550Z,98733.58
2022-10-30T23:57:15.235Z,98734.79
2022-10-30T23:59:45.692Z,98740.72
